Oparino, Russia
Current Conditions -  °F | °C
As of 8:30 PM on Friday 21 Nov 2014 (Local Time) from UUYY Reporting Station
Freezing Rain Freezing Rain  
Wind Chill: 19°   Ceiling: 700
Heat Index: 27°   Visibility: 4mi
Dew Point: 25°   Wind: 7mph
Humidity: 93%   Direction: 250°WSW
Pressure: 30.21"   Gusts: NA
Location:  59.85°N, 48.28°E
Report Text: UUYY 211630Z 25003MPS 6000 -FZRA BKN007 OVC015 M03/M04 Q1023 TEMPO 2000 SN FZRA 1929//51 RMK QFE759/1012
Loading
Personal Weather Stations






























Interactive Weather Map New forecast layout! Learn more

10-Day Weather Forecast

Advertisements
Track Severe Weather on mobile